createdAt,value
2017-08-05T00:00:11.227Z,0
2017-08-05T00:00:51.762Z,0
2017-08-05T00:01:32.299Z,0
2017-08-05T00:02:12.829Z,0
2017-08-05T00:02:53.359Z,0
2017-08-05T00:03:33.896Z,0
2017-08-05T00:04:14.425Z,0
2017-08-05T00:04:54.961Z,0
2017-08-05T00:05:35.498Z,0
2017-08-05T00:06:16.035Z,0
2017-08-05T00:06:56.574Z,0
2017-08-05T00:07:37.104Z,0
2017-08-05T00:08:17.638Z,0
2017-08-05T00:08:58.181Z,0
2017-08-05T00:09:38.711Z,0
2017-08-05T00:10:19.243Z,0
2017-08-05T00:10:59.779Z,0
2017-08-05T00:11:40.311Z,0
2017-08-05T00:12:20.853Z,0
2017-08-05T00:13:01.383Z,0
2017-08-05T00:13:41.919Z,0
2017-08-05T00:14:22.453Z,0
2017-08-05T00:15:02.993Z,0
2017-08-05T00:15:43.529Z,0
2017-08-05T00:16:24.069Z,0
2017-08-05T00:17:04.608Z,0
2017-08-05T00:17:45.142Z,0
2017-08-05T00:18:25.686Z,0
2017-08-05T00:19:06.219Z,0
2017-08-05T00:19:46.776Z,0
2017-08-05T00:20:27.301Z,0
2017-08-05T00:21:07.842Z,0
2017-08-05T00:21:48.373Z,0
2017-08-05T00:22:28.902Z,0
2017-08-05T00:23:09.441Z,0
2017-08-05T00:23:49.979Z,0
2017-08-05T00:24:30.516Z,0
2017-08-05T00:25:11.060Z,0
2017-08-05T00:25:51.597Z,0
2017-08-05T00:26:32.137Z,0
2017-08-05T00:27:12.664Z,0
2017-08-05T00:27:53.197Z,0
2017-08-05T00:28:33.731Z,0
2017-08-05T00:29:14.261Z,0
2017-08-05T00:29:54.794Z,0
2017-08-05T00:30:35.333Z,0
2017-08-05T00:31:15.872Z,0
2017-08-05T00:31:56.414Z,0
2017-08-05T00:32:36.949Z,0
2017-08-05T00:33:17.489Z,0
2017-08-05T00:33:58.025Z,0
2017-08-05T00:34:38.565Z,0
2017-08-05T00:35:19.109Z,0
2017-08-05T00:35:59.650Z,0
2017-08-05T00:36:40.190Z,0
2017-08-05T00:37:20.726Z,0
2017-08-05T00:38:01.264Z,0
2017-08-05T00:38:41.804Z,0
2017-08-05T00:39:22.333Z,0
2017-08-05T00:40:02.872Z,0
2017-08-05T00:40:43.410Z,0
2017-08-05T00:41:23.935Z,0
2017-08-05T00:42:04.472Z,0
2017-08-05T00:42:45.013Z,0
2017-08-05T00:43:25.550Z,0
2017-08-05T00:44:06.080Z,0
2017-08-05T00:44:46.624Z,0
2017-08-05T00:45:27.153Z,0
2017-08-05T00:46:07.682Z,0
2017-08-05T00:46:48.224Z,0
2017-08-05T00:47:28.761Z,0
2017-08-05T00:48:09.299Z,0
2017-08-05T00:48:49.830Z,0
2017-08-05T00:49:30.366Z,0
2017-08-05T00:50:10.898Z,0
2017-08-05T00:50:51.435Z,0
2017-08-05T00:51:31.979Z,0
2017-08-05T00:52:12.517Z,0
2017-08-05T00:52:53.053Z,0
2017-08-05T00:53:33.587Z,0
2017-08-05T00:54:14.133Z,0
2017-08-05T00:54:54.671Z,0
2017-08-05T00:55:35.213Z,0
2017-08-05T00:56:15.750Z,0
2017-08-05T00:56:56.287Z,0
2017-08-05T00:57:36.822Z,0
2017-08-05T00:58:17.361Z,0
2017-08-05T00:58:57.899Z,0
2017-08-05T00:59:38.437Z,0
2017-08-05T01:00:18.969Z,0
2017-08-05T01:00:59.509Z,0
2017-08-05T01:01:40.045Z,0
2017-08-05T01:02:20.580Z,0
2017-08-05T01:03:01.116Z,0
2017-08-05T01:03:41.654Z,0
2017-08-05T01:04:22.202Z,0
2017-08-05T01:05:02.713Z,0
2017-08-05T01:05:43.243Z,0
2017-08-05T01:06:23.778Z,0
2017-08-05T01:07:04.319Z,0
2017-08-05T01:07:44.856Z,0
2017-08-05T01:08:25.376Z,0
2017-08-05T01:09:05.915Z,0
2017-08-05T01:09:46.450Z,0
2017-08-05T01:10:26.980Z,0
2017-08-05T01:11:07.514Z,0
2017-08-05T01:11:48.056Z,0
2017-08-05T01:12:28.596Z,0
2017-08-05T01:13:09.132Z,0
2017-08-05T01:13:49.669Z,0
2017-08-05T01:14:30.213Z,0
2017-08-05T01:15:10.737Z,0
2017-08-05T01:15:51.279Z,0
2017-08-05T01:16:31.807Z,0
2017-08-05T01:17:12.350Z,0
2017-08-05T01:17:52.891Z,0
2017-08-05T01:18:33.424Z,0
2017-08-05T01:19:13.964Z,0
2017-08-05T01:19:54.504Z,0
2017-08-05T01:20:35.042Z,0
2017-08-05T01:21:15.580Z,0
2017-08-05T01:21:56.114Z,0
2017-08-05T01:22:36.656Z,0
2017-08-05T01:23:17.190Z,0
2017-08-05T01:23:57.739Z,0
2017-08-05T01:24:38.271Z,0
2017-08-05T01:25:18.808Z,0
2017-08-05T01:25:59.353Z,0
2017-08-05T01:26:39.887Z,0
2017-08-05T01:27:20.421Z,0
2017-08-05T01:28:00.970Z,0
2017-08-05T01:28:41.503Z,0
2017-08-05T01:29:22.027Z,0
2017-08-05T01:30:02.547Z,0
2017-08-05T01:30:43.068Z,0
2017-08-05T01:31:23.597Z,0
2017-08-05T01:32:04.135Z,0
2017-08-05T01:32:44.671Z,0
2017-08-05T01:33:25.207Z,0
2017-08-05T01:34:05.750Z,0
2017-08-05T01:34:46.288Z,0
2017-08-05T01:35:26.827Z,0
2017-08-05T01:36:07.358Z,0
2017-08-05T01:36:47.883Z,0
2017-08-05T01:37:28.395Z,0
2017-08-05T01:38:08.930Z,0
2017-08-05T01:38:49.480Z,0
2017-08-05T01:39:30.019Z,0
2017-08-05T01:40:10.561Z,0
2017-08-05T01:40:51.099Z,0
2017-08-05T01:41:31.633Z,0
2017-08-05T01:42:12.171Z,0
2017-08-05T01:42:52.709Z,0
2017-08-05T01:43:33.252Z,0
2017-08-05T01:44:13.789Z,0
2017-08-05T01:44:54.324Z,0
2017-08-05T01:45:34.867Z,0
2017-08-05T01:46:15.405Z,0
2017-08-05T01:46:55.933Z,0
2017-08-05T01:47:36.467Z,0
2017-08-05T01:48:17.008Z,0
2017-08-05T01:48:57.555Z,0
2017-08-05T01:49:38.089Z,0
2017-08-05T01:50:18.629Z,0
2017-08-05T01:50:59.162Z,0
2017-08-05T01:51:39.694Z,0
2017-08-05T01:52:20.230Z,0
2017-08-05T01:53:00.765Z,0
2017-08-05T01:53:41.303Z,0
2017-08-05T01:54:21.843Z,0
2017-08-05T01:55:02.369Z,0
2017-08-05T01:55:42.893Z,0
2017-08-05T01:56:23.429Z,0
2017-08-05T01:57:03.971Z,0
2017-08-05T01:57:44.505Z,0
2017-08-05T01:58:25.035Z,0
2017-08-05T01:59:05.570Z,0
2017-08-05T01:59:46.121Z,0
2017-08-05T02:00:26.638Z,0
2017-08-05T02:01:07.173Z,0
2017-08-05T02:01:47.700Z,0
2017-08-05T02:02:28.237Z,0
2017-08-05T02:03:08.791Z,0
2017-08-05T02:03:49.303Z,0
2017-08-05T02:04:29.830Z,0
2017-08-05T02:05:10.367Z,0
2017-08-05T02:05:50.906Z,0
2017-08-05T02:06:31.443Z,0
2017-08-05T02:07:11.984Z,0
2017-08-05T02:07:52.523Z,0
2017-08-05T02:08:33.059Z,0
2017-08-05T02:09:13.592Z,0
2017-08-05T02:09:54.129Z,0
2017-08-05T02:10:34.666Z,0
2017-08-05T02:11:15.195Z,0
2017-08-05T02:11:55.735Z,0
2017-08-05T02:12:36.265Z,0
2017-08-05T02:13:16.821Z,0
2017-08-05T02:13:57.348Z,0
2017-08-05T02:14:37.874Z,0
2017-08-05T02:15:18.409Z,0
2017-08-05T02:15:58.933Z,0
2017-08-05T02:16:39.458Z,0
2017-08-05T02:17:19.988Z,0
2017-08-05T02:18:00.539Z,0
2017-08-05T02:18:41.077Z,0
2017-08-05T02:19:21.615Z,0
2017-08-05T02:20:02.152Z,0
2017-08-05T02:20:42.686Z,0
2017-08-05T02:21:23.224Z,0
2017-08-05T02:22:03.741Z,0
2017-08-05T02:22:44.296Z,0
2017-08-05T02:23:24.822Z,0
2017-08-05T02:24:05.361Z,0
2017-08-05T02:24:45.906Z,0
2017-08-05T02:25:26.448Z,0
2017-08-05T02:26:06.977Z,0
2017-08-05T02:26:47.523Z,0
2017-08-05T02:27:28.060Z,0
2017-08-05T02:28:08.600Z,0
2017-08-05T02:28:49.129Z,0
2017-08-05T02:29:29.660Z,0
2017-08-05T02:30:10.202Z,0
2017-08-05T02:30:50.723Z,0
2017-08-05T02:31:31.257Z,0
2017-08-05T02:32:11.796Z,0
2017-08-05T02:32:52.335Z,0
2017-08-05T02:33:32.862Z,0
2017-08-05T02:34:13.396Z,0
2017-08-05T02:34:53.926Z,0
2017-08-05T02:35:34.462Z,0
2017-08-05T02:36:15.002Z,0
2017-08-05T02:36:55.551Z,0
2017-08-05T02:37:36.084Z,0
2017-08-05T02:38:16.619Z,0
2017-08-05T02:38:57.168Z,0
2017-08-05T02:39:37.703Z,0
2017-08-05T02:40:18.248Z,0
2017-08-05T02:40:58.772Z,0
2017-08-05T02:41:39.315Z,0
2017-08-05T02:42:19.858Z,0
2017-08-05T02:43:00.398Z,0
2017-08-05T02:43:40.935Z,0
2017-08-05T02:44:21.479Z,0
2017-08-05T02:45:02.015Z,0
2017-08-05T02:45:42.551Z,0
2017-08-05T02:46:23.088Z,0
2017-08-05T02:47:03.627Z,0
2017-08-05T02:47:44.164Z,0
2017-08-05T02:48:24.701Z,0
2017-08-05T02:49:05.240Z,0
2017-08-05T02:49:45.767Z,0
2017-08-05T02:50:26.309Z,0
2017-08-05T02:51:06.839Z,0
2017-08-05T02:51:47.372Z,0
2017-08-05T02:52:27.902Z,0
2017-08-05T02:53:08.443Z,0
2017-08-05T02:53:48.982Z,0
2017-08-05T02:54:29.520Z,0
2017-08-05T02:55:10.059Z,0
2017-08-05T02:55:50.600Z,0
2017-08-05T02:56:31.142Z,0
2017-08-05T02:57:11.683Z,0
2017-08-05T02:57:52.221Z,0
2017-08-05T02:58:32.762Z,0
2017-08-05T02:59:13.302Z,0
2017-08-05T02:59:53.836Z,0
2017-08-05T03:00:34.379Z,0
2017-08-05T03:01:14.915Z,0
2017-08-05T03:01:55.456Z,0
2017-08-05T03:02:36.007Z,0
2017-08-05T03:03:16.549Z,0
2017-08-05T03:03:57.088Z,0
2017-08-05T03:04:37.627Z,0
2017-08-05T03:05:18.168Z,0
2017-08-05T03:05:58.706Z,0
2017-08-05T03:06:39.243Z,0
2017-08-05T03:07:19.780Z,0
2017-08-05T03:08:00.387Z,0
2017-08-05T03:08:40.947Z,0
2017-08-05T03:09:21.482Z,0
2017-08-05T03:10:02.013Z,0
2017-08-05T03:10:42.553Z,0
2017-08-05T03:11:23.099Z,0
2017-08-05T03:12:03.637Z,0
2017-08-05T03:12:44.167Z,0
2017-08-05T03:13:24.702Z,0
2017-08-05T03:14:05.236Z,0
2017-08-05T03:14:45.774Z,0
2017-08-05T03:15:26.312Z,0
2017-08-05T03:16:06.844Z,0
2017-08-05T03:16:47.391Z,0
2017-08-05T03:17:27.935Z,0
2017-08-05T03:18:08.463Z,0
2017-08-05T03:18:49.006Z,0
2017-08-05T03:19:29.542Z,0
2017-08-05T03:20:10.080Z,0
2017-08-05T03:20:50.617Z,0
2017-08-05T03:21:31.148Z,0
2017-08-05T03:22:11.678Z,0
2017-08-05T03:22:52.209Z,0
2017-08-05T03:23:32.744Z,0
2017-08-05T03:24:13.266Z,0
2017-08-05T03:24:53.810Z,0
2017-08-05T03:25:34.344Z,0
2017-08-05T03:26:14.892Z,0
2017-08-05T03:26:55.427Z,0
2017-08-05T03:27:35.962Z,0
2017-08-05T03:28:16.511Z,0
2017-08-05T03:28:57.054Z,0
2017-08-05T03:29:37.587Z,0
2017-08-05T03:30:18.131Z,0
2017-08-05T03:30:58.667Z,0
2017-08-05T03:31:39.199Z,0
2017-08-05T03:32:19.740Z,0
2017-08-05T03:33:00.281Z,0
2017-08-05T03:33:40.812Z,0
2017-08-05T03:34:21.354Z,0
2017-08-05T03:35:01.893Z,0
2017-08-05T03:35:42.432Z,4
2017-08-05T03:36:22.950Z,4
2017-08-05T03:37:03.480Z,4
2017-08-05T03:37:44.018Z,0
2017-08-05T03:38:24.557Z,0
2017-08-05T03:39:05.079Z,4
2017-08-05T03:39:45.621Z,4
2017-08-05T03:40:26.162Z,4
2017-08-05T03:41:06.708Z,0
2017-08-05T03:41:47.247Z,4
2017-08-05T03:42:27.781Z,8
2017-08-05T03:43:08.319Z,4
2017-08-05T03:43:48.853Z,4
2017-08-05T03:44:29.391Z,8
2017-08-05T03:45:09.928Z,8
2017-08-05T03:45:50.461Z,8
2017-08-05T03:46:30.984Z,8
2017-08-05T03:47:11.515Z,8
2017-08-05T03:47:52.049Z,12
2017-08-05T03:48:32.593Z,8
2017-08-05T03:49:13.130Z,12
2017-08-05T03:49:53.674Z,12
2017-08-05T03:50:34.212Z,12
2017-08-05T03:51:14.750Z,12
2017-08-05T03:51:55.290Z,12
2017-08-05T03:52:35.831Z,12
2017-08-05T03:53:16.372Z,12
2017-08-05T03:53:56.913Z,16
2017-08-05T03:54:37.448Z,12
2017-08-05T03:55:17.987Z,16
2017-08-05T03:55:58.529Z,16
2017-08-05T03:56:39.061Z,16
2017-08-05T03:57:19.599Z,20
2017-08-05T03:58:00.129Z,20
2017-08-05T03:58:40.677Z,20
2017-08-05T03:59:21.214Z,20
2017-08-05T04:00:01.749Z,24
2017-08-05T04:00:42.291Z,20
2017-08-05T04:01:22.829Z,24
2017-08-05T04:02:03.356Z,28
2017-08-05T04:02:43.914Z,28
2017-08-05T04:03:24.451Z,32
2017-08-05T04:04:04.976Z,36
2017-08-05T04:04:45.525Z,36
2017-08-05T04:05:26.067Z,36
2017-08-05T04:06:06.600Z,36
2017-08-05T04:06:47.149Z,36
2017-08-05T04:07:27.690Z,32
2017-08-05T04:08:08.229Z,36
2017-08-05T04:08:48.759Z,36
2017-08-05T04:09:29.292Z,44
2017-08-05T04:10:09.839Z,48
2017-08-05T04:10:50.380Z,60
2017-08-05T04:11:30.925Z,56
2017-08-05T04:12:11.465Z,52
2017-08-05T04:12:52.007Z,56
2017-08-05T04:13:32.533Z,68
2017-08-05T04:14:13.061Z,80
2017-08-05T04:14:53.601Z,92
2017-08-05T04:15:34.142Z,108
2017-08-05T04:16:14.685Z,112
2017-08-05T04:16:55.222Z,108
2017-08-05T04:17:35.761Z,92
2017-08-05T04:18:16.307Z,88
2017-08-05T04:18:56.839Z,88
2017-08-05T04:19:37.370Z,88
2017-08-05T04:20:17.909Z,96
2017-08-05T04:20:58.450Z,100
2017-08-05T04:21:38.982Z,104
2017-08-05T04:22:19.517Z,100
2017-08-05T04:23:00.062Z,108
2017-08-05T04:23:40.590Z,112
2017-08-05T04:24:21.116Z,116
2017-08-05T04:25:01.651Z,140
2017-08-05T04:25:42.190Z,148
2017-08-05T04:26:22.722Z,148
2017-08-05T04:27:03.265Z,160
2017-08-05T04:27:43.803Z,168
2017-08-05T04:28:24.340Z,188
2017-08-05T04:29:04.871Z,200
2017-08-05T04:29:45.400Z,204
2017-08-05T04:30:25.939Z,204
2017-08-05T04:31:06.473Z,192
2017-08-05T04:31:47.018Z,200
2017-08-05T04:32:27.563Z,208
2017-08-05T04:33:08.099Z,224
2017-08-05T04:33:48.640Z,228
2017-08-05T04:34:29.178Z,252
2017-08-05T04:35:09.719Z,292
2017-08-05T04:35:50.258Z,304
2017-08-05T04:36:30.797Z,296
2017-08-05T04:37:11.327Z,268
2017-08-05T04:37:51.868Z,236
2017-08-05T04:38:32.394Z,236
2017-08-05T04:39:12.932Z,244
2017-08-05T04:39:53.467Z,236
2017-08-05T04:40:33.994Z,240
2017-08-05T04:41:14.531Z,260
2017-08-05T04:41:55.081Z,296
2017-08-05T04:42:35.624Z,304
2017-08-05T04:43:16.149Z,324
2017-08-05T04:43:56.686Z,360
2017-08-05T04:44:37.213Z,380
2017-08-05T04:45:17.756Z,404
2017-08-05T04:45:58.304Z,424
2017-08-05T04:46:38.826Z,472
2017-08-05T04:47:19.370Z,528
2017-08-05T04:47:59.905Z,592
2017-08-05T04:48:40.440Z,664
2017-08-05T04:49:20.964Z,688
2017-08-05T04:50:01.491Z,700
2017-08-05T04:50:42.026Z,668
2017-08-05T04:51:22.565Z,688
2017-08-05T04:52:03.100Z,716
2017-08-05T04:52:43.640Z,656
2017-08-05T04:53:24.176Z,596
2017-08-05T04:54:04.723Z,548
2017-08-05T04:54:45.259Z,508
2017-08-05T04:55:25.802Z,508
2017-08-05T04:56:06.339Z,488
2017-08-05T04:56:46.875Z,540
2017-08-05T04:57:27.420Z,580
2017-08-05T04:58:07.949Z,508
2017-08-05T04:58:48.512Z,428
2017-08-05T04:59:29.043Z,400
2017-08-05T05:00:09.587Z,400
2017-08-05T05:00:50.130Z,412
2017-08-05T05:01:30.657Z,404
2017-08-05T05:02:11.198Z,440
2017-08-05T05:02:51.730Z,456
2017-08-05T05:03:32.266Z,476
2017-08-05T05:04:12.790Z,484
2017-08-05T05:04:53.335Z,560
2017-08-05T05:05:33.859Z,660
2017-08-05T05:06:14.399Z,724
2017-08-05T05:06:54.939Z,712
2017-08-05T05:07:35.469Z,640
2017-08-05T05:08:16.000Z,628
2017-08-05T05:08:56.538Z,632
2017-08-05T05:09:37.062Z,696
2017-08-05T05:10:17.603Z,784
2017-08-05T05:10:58.136Z,860
2017-08-05T05:11:38.674Z,996
2017-08-05T05:12:19.210Z,1024
2017-08-05T05:12:59.748Z,1076
2017-08-05T05:13:40.283Z,1184
2017-08-05T05:14:20.808Z,1200
2017-08-05T05:15:01.356Z,1192
2017-08-05T05:15:41.878Z,1376
2017-08-05T05:16:22.398Z,1664
2017-08-05T05:17:02.944Z,1796
2017-08-05T05:17:43.484Z,1792
2017-08-05T05:18:24.018Z,1688
2017-08-05T05:19:04.548Z,1608
2017-08-05T05:19:45.081Z,1608
2017-08-05T05:20:25.617Z,1512
2017-08-05T05:21:06.153Z,1448
2017-08-05T05:21:46.687Z,1480
2017-08-05T05:22:27.209Z,1616
2017-08-05T05:23:07.760Z,1704
2017-08-05T05:23:48.305Z,1832
2017-08-05T05:24:28.823Z,1988
2017-08-05T05:25:09.354Z,2252
2017-08-05T05:25:49.892Z,2536
2017-08-05T05:26:30.451Z,2344
2017-08-05T05:27:10.983Z,2024
2017-08-05T05:27:51.522Z,1772
2017-08-05T05:28:32.051Z,1560
2017-08-05T05:29:12.582Z,1444
2017-08-05T05:29:53.118Z,1508
2017-08-05T05:30:33.656Z,1544
2017-08-05T05:31:14.195Z,1516
2017-08-05T05:31:54.733Z,1484
2017-08-05T05:32:35.271Z,1324
2017-08-05T05:33:15.805Z,1216
2017-08-05T05:33:56.338Z,1112
2017-08-05T05:34:36.871Z,988
2017-08-05T05:35:17.402Z,896
2017-08-05T05:35:57.942Z,732
2017-08-05T05:36:38.485Z,688
2017-08-05T05:37:19.007Z,724
2017-08-05T05:37:59.537Z,860
2017-08-05T05:38:40.083Z,1000
2017-08-05T05:39:20.621Z,1072
2017-08-05T05:40:01.162Z,1200
2017-08-05T05:40:41.695Z,1236
2017-08-05T05:41:22.237Z,1160
2017-08-05T05:42:02.778Z,1164
2017-08-05T05:42:43.312Z,1216
2017-08-05T05:43:23.857Z,1248
2017-08-05T05:44:04.392Z,1256
2017-08-05T05:44:44.929Z,1260
2017-08-05T05:45:25.465Z,1292
2017-08-05T05:46:06.008Z,1340
2017-08-05T05:46:46.545Z,1248
2017-08-05T05:47:27.073Z,1248
2017-08-05T05:48:07.612Z,1380
2017-08-05T05:48:48.140Z,1444
2017-08-05T05:49:28.670Z,1332
2017-08-05T05:50:09.208Z,1224
2017-08-05T05:50:49.731Z,1244
2017-08-05T05:51:30.277Z,1280
2017-08-05T05:52:10.800Z,1504
2017-08-05T05:52:51.327Z,1700
2017-08-05T05:53:31.873Z,1764
2017-08-05T05:54:12.410Z,1728
2017-08-05T05:54:52.949Z,1660
2017-08-05T05:55:33.484Z,1720
2017-08-05T05:56:14.017Z,1792
2017-08-05T05:56:54.554Z,1832
2017-08-05T05:57:35.097Z,1728
2017-08-05T05:58:15.620Z,1564
2017-08-05T05:58:56.163Z,1452
2017-08-05T05:59:36.700Z,1496
2017-08-05T06:00:17.233Z,1832
2017-08-05T06:00:57.773Z,2036
2017-08-05T06:01:38.310Z,2008
2017-08-05T06:02:18.857Z,1768
2017-08-05T06:02:59.371Z,1448
2017-08-05T06:03:39.908Z,1264
2017-08-05T06:04:20.448Z,1384
2017-08-05T06:05:00.990Z,1456
2017-08-05T06:05:41.529Z,1320
2017-08-05T06:06:22.058Z,1068
2017-08-05T06:07:02.589Z,904
2017-08-05T06:07:43.133Z,792
2017-08-05T06:08:23.671Z,784
2017-08-05T06:09:04.212Z,768
2017-08-05T06:09:44.738Z,776
2017-08-05T06:10:25.281Z,768
2017-08-05T06:11:05.812Z,664
2017-08-05T06:11:46.348Z,648
2017-08-05T06:12:26.887Z,664
2017-08-05T06:13:07.429Z,660
2017-08-05T06:13:47.968Z,716
2017-08-05T06:14:28.506Z,756
2017-08-05T06:15:09.049Z,800
2017-08-05T06:15:49.585Z,720
2017-08-05T06:16:30.127Z,752
2017-08-05T06:17:10.666Z,804
2017-08-05T06:17:51.205Z,716
2017-08-05T06:18:31.748Z,700
2017-08-05T06:19:12.294Z,860
2017-08-05T06:19:52.837Z,932
2017-08-05T06:20:33.376Z,928
2017-08-05T06:21:13.914Z,1020
2017-08-05T06:21:54.446Z,1204
2017-08-05T06:22:34.993Z,1160
2017-08-05T06:23:15.530Z,1052
2017-08-05T06:23:56.072Z,1076
2017-08-05T06:24:36.609Z,1104
2017-08-05T06:25:17.149Z,1212
2017-08-05T06:25:57.688Z,1140
2017-08-05T06:26:38.229Z,1044
2017-08-05T06:27:18.767Z,1056
2017-08-05T06:27:59.305Z,1348
2017-08-05T06:28:39.848Z,1596
2017-08-05T06:29:20.385Z,1596
2017-08-05T06:30:00.926Z,1804
2017-08-05T06:30:41.455Z,1940
2017-08-05T06:31:21.993Z,2492
2017-08-05T06:32:02.530Z,2800
2017-08-05T06:32:43.072Z,2364
2017-08-05T06:33:23.602Z,1764
2017-08-05T06:34:04.140Z,1684
2017-08-05T06:34:44.684Z,1992
2017-08-05T06:35:25.221Z,2060
2017-08-05T06:36:05.761Z,1908
2017-08-05T06:36:46.303Z,1716
2017-08-05T06:37:26.844Z,1556
2017-08-05T06:38:07.389Z,1412
2017-08-05T06:38:47.930Z,1216
2017-08-05T06:39:28.465Z,1220
2017-08-05T06:40:09.000Z,1404
2017-08-05T06:40:49.538Z,1852
2017-08-05T06:41:30.080Z,2204
2017-08-05T06:42:10.621Z,2264
2017-08-05T06:42:51.168Z,2276
2017-08-05T06:43:31.705Z,2320
2017-08-05T06:44:12.246Z,2188
2017-08-05T06:44:52.791Z,2144
2017-08-05T06:45:33.321Z,2036
2017-08-05T06:46:13.865Z,1888
2017-08-05T06:46:54.407Z,2236
2017-08-05T06:47:34.948Z,2616
2017-08-05T06:48:15.471Z,2804
2017-08-05T06:48:56.017Z,3180
2017-08-05T06:49:36.567Z,3904
2017-08-05T06:50:17.089Z,4708
2017-08-05T06:50:57.636Z,4620
2017-08-05T06:51:38.159Z,4012
2017-08-05T06:52:18.696Z,3584
2017-08-05T06:52:59.230Z,3284
2017-08-05T06:53:39.770Z,3464
2017-08-05T06:54:20.306Z,3736
2017-08-05T06:55:00.839Z,4524
2017-08-05T06:55:41.391Z,5164
2017-08-05T06:56:21.911Z,5704
2017-08-05T06:57:02.447Z,6680
2017-08-05T06:57:42.982Z,7428
2017-08-05T06:58:23.533Z,6092
2017-08-05T06:59:04.074Z,4848
2017-08-05T06:59:44.614Z,4156
2017-08-05T07:00:25.153Z,4408
2017-08-05T07:01:05.698Z,4292
2017-08-05T07:01:46.232Z,3252
2017-08-05T07:02:26.780Z,2916
2017-08-05T07:03:07.320Z,3308
2017-08-05T07:03:47.857Z,3540
2017-08-05T07:04:28.391Z,3972
2017-08-05T07:05:08.938Z,4932
2017-08-05T07:05:49.479Z,4236
2017-08-05T07:06:30.010Z,3876
2017-08-05T07:07:10.559Z,4100
2017-08-05T07:07:51.106Z,4828
2017-08-05T07:08:31.650Z,6260
2017-08-05T07:09:12.186Z,8416
2017-08-05T07:09:52.726Z,9632
2017-08-05T07:10:33.253Z,10096
2017-08-05T07:11:13.792Z,8388
2017-08-05T07:11:54.331Z,7144
2017-08-05T07:12:34.871Z,5568
2017-08-05T07:13:15.407Z,4428
2017-08-05T07:13:55.944Z,3888
2017-08-05T07:14:36.473Z,3576
2017-08-05T07:15:17.036Z,3872
2017-08-05T07:15:57.552Z,3956
2017-08-05T07:16:38.089Z,3708
2017-08-05T07:17:18.627Z,3740
2017-08-05T07:17:59.162Z,4008
2017-08-05T07:18:39.704Z,3960
2017-08-05T07:19:20.245Z,3640
2017-08-05T07:20:00.780Z,3352
2017-08-05T07:20:41.331Z,3092
2017-08-05T07:21:21.863Z,2264
2017-08-05T07:22:02.407Z,1828
2017-08-05T07:22:42.954Z,1332
2017-08-05T07:23:23.493Z,960
2017-08-05T07:24:04.036Z,816
2017-08-05T07:24:44.573Z,1004
2017-08-05T07:25:25.115Z,1432
2017-08-05T07:26:05.650Z,1908
2017-08-05T07:26:46.192Z,2464
2017-08-05T07:27:26.732Z,2956
2017-08-05T07:28:07.284Z,3496
2017-08-05T07:28:47.808Z,4084
2017-08-05T07:29:28.341Z,4284
2017-08-05T07:30:08.877Z,3840
2017-08-05T07:30:49.426Z,3256
2017-08-05T07:31:29.966Z,3472
2017-08-05T07:32:10.487Z,3700
2017-08-05T07:32:51.023Z,3484
2017-08-05T07:33:31.546Z,3428
2017-08-05T07:34:12.097Z,3432
2017-08-05T07:34:52.631Z,3200
2017-08-05T07:35:33.162Z,2680
2017-08-05T07:36:13.696Z,3040
2017-08-05T07:36:54.224Z,2916
2017-08-05T07:37:34.768Z,3356
2017-08-05T07:38:15.302Z,3628
2017-08-05T07:38:55.842Z,3820
2017-08-05T07:39:36.378Z,4024
2017-08-05T07:40:16.917Z,4204
2017-08-05T07:40:57.454Z,4980
2017-08-05T07:41:37.992Z,5224
2017-08-05T07:42:18.529Z,5468
2017-08-05T07:42:59.071Z,5692
2017-08-05T07:43:39.610Z,5600
2017-08-05T07:44:20.153Z,5560
2017-08-05T07:45:00.685Z,5464
2017-08-05T07:45:41.212Z,5128
2017-08-05T07:46:21.748Z,4448
2017-08-05T07:47:02.286Z,3984
2017-08-05T07:47:42.831Z,3536
2017-08-05T07:48:23.354Z,2956
2017-08-05T07:49:03.901Z,2312
2017-08-05T07:49:44.433Z,2072
2017-08-05T07:50:24.970Z,2092
2017-08-05T07:51:05.504Z,2128
2017-08-05T07:51:46.038Z,2132
2017-08-05T07:52:26.581Z,2188
2017-08-05T07:53:07.131Z,2292
2017-08-05T07:53:47.669Z,2456
2017-08-05T07:54:28.211Z,2516
2017-08-05T07:55:08.759Z,2420
2017-08-05T07:55:49.287Z,2192
2017-08-05T07:56:29.829Z,2152
2017-08-05T07:57:10.367Z,2052
2017-08-05T07:57:50.909Z,2064
2017-08-05T07:58:31.446Z,2276
2017-08-05T07:59:11.989Z,2288
2017-08-05T07:59:52.527Z,2264
2017-08-05T08:00:33.070Z,2388
2017-08-05T08:01:13.614Z,2332
2017-08-05T08:01:54.154Z,2344
2017-08-05T08:02:34.687Z,2268
2017-08-05T08:03:15.219Z,2328
2017-08-05T08:03:55.762Z,2600
2017-08-05T08:04:36.298Z,2532
2017-08-05T08:05:16.842Z,2380
2017-08-05T08:05:57.371Z,2304
2017-08-05T08:06:37.908Z,2320
2017-08-05T08:07:18.445Z,2408
2017-08-05T08:07:58.980Z,2592
2017-08-05T08:08:39.519Z,3192
2017-08-05T08:09:20.058Z,3732
2017-08-05T08:10:00.585Z,4220
2017-08-05T08:10:41.134Z,4232
2017-08-05T08:11:21.678Z,4452
2017-08-05T08:12:02.224Z,5020
2017-08-05T08:12:42.757Z,4868
2017-08-05T08:13:23.299Z,5332
2017-08-05T08:14:03.828Z,5688
2017-08-05T08:14:44.367Z,5072
2017-08-05T08:15:24.912Z,4876
2017-08-05T08:16:05.451Z,4684
2017-08-05T08:16:45.993Z,4216
2017-08-05T08:17:26.535Z,4544
2017-08-05T08:18:07.068Z,4640
2017-08-05T08:18:47.611Z,4604
2017-08-05T08:19:28.148Z,4300
2017-08-05T08:20:08.672Z,4100
2017-08-05T08:20:49.211Z,3452
2017-08-05T08:21:29.760Z,2812
2017-08-05T08:22:10.294Z,2604
2017-08-05T08:22:50.835Z,2888
2017-08-05T08:23:31.377Z,3416
2017-08-05T08:24:11.921Z,3968
2017-08-05T08:24:52.454Z,3932
2017-08-05T08:25:32.988Z,4236
2017-08-05T08:26:13.525Z,4720
2017-08-05T08:26:54.072Z,5424
2017-08-05T08:27:34.616Z,5468
2017-08-05T08:28:15.148Z,4880
2017-08-05T08:28:55.685Z,4812
2017-08-05T08:29:36.231Z,4988
2017-08-05T08:30:16.768Z,4592
2017-08-05T08:30:57.308Z,4588
2017-08-05T08:31:37.840Z,4568
2017-08-05T08:32:18.369Z,4748
2017-08-05T08:32:58.915Z,4860
2017-08-05T08:33:39.459Z,4720
2017-08-05T08:34:20.007Z,4324
2017-08-05T08:35:00.561Z,3744
2017-08-05T08:35:41.100Z,3556
2017-08-05T08:36:21.632Z,3240
2017-08-05T08:37:02.168Z,2584
2017-08-05T08:37:42.706Z,2184
2017-08-05T08:38:23.247Z,2052
2017-08-05T08:39:03.785Z,2108
2017-08-05T08:39:44.326Z,2064
2017-08-05T08:40:24.874Z,2000
2017-08-05T08:41:05.418Z,1936
2017-08-05T08:41:45.952Z,1844
2017-08-05T08:42:26.495Z,1668
2017-08-05T08:43:07.038Z,1604
2017-08-05T08:43:47.574Z,1456
2017-08-05T08:44:28.116Z,1396
2017-08-05T08:45:08.654Z,1372
2017-08-05T08:45:49.223Z,1428
2017-08-05T08:46:29.767Z,1460
2017-08-05T08:47:10.305Z,1424
2017-08-05T08:47:50.833Z,1368
2017-08-05T08:48:31.386Z,1332
2017-08-05T08:49:11.935Z,1356
2017-08-05T08:49:52.474Z,1560
2017-08-05T08:50:33.008Z,1864
2017-08-05T08:51:13.551Z,2388
2017-08-05T08:51:54.092Z,2440
2017-08-05T08:52:34.631Z,1948
2017-08-05T08:53:15.164Z,1840
2017-08-05T08:53:55.701Z,1612
2017-08-05T08:54:36.241Z,1728
2017-08-05T08:55:16.790Z,1984
2017-08-05T08:55:57.324Z,1880
2017-08-05T08:56:37.864Z,1604
2017-08-05T08:57:18.407Z,1736
2017-08-05T08:57:58.941Z,2108
2017-08-05T08:58:39.495Z,2344
2017-08-05T08:59:20.026Z,1908
2017-08-05T09:00:00.566Z,1504
2017-08-05T09:00:41.106Z,1324
2017-08-05T09:01:21.657Z,1316
2017-08-05T09:02:02.202Z,1444
2017-08-05T09:02:42.747Z,1700
2017-08-05T09:03:23.289Z,1856
2017-08-05T09:04:03.822Z,1916
2017-08-05T09:04:44.365Z,2104
2017-08-05T09:05:24.900Z,2212
2017-08-05T09:06:05.444Z,1856
2017-08-05T09:06:45.985Z,1680
2017-08-05T09:07:26.526Z,1812
2017-08-05T09:08:07.102Z,2040
2017-08-05T09:08:47.635Z,2080
2017-08-05T09:09:28.170Z,1900
2017-08-05T09:10:08.718Z,1876
2017-08-05T09:10:49.253Z,2168
2017-08-05T09:11:29.786Z,2500
2017-08-05T09:12:10.318Z,2196
2017-08-05T09:12:50.854Z,1820
2017-08-05T09:13:31.393Z,1664
2017-08-05T09:14:11.923Z,1640
2017-08-05T09:14:52.466Z,1652
2017-08-05T09:15:32.988Z,1784
2017-08-05T09:16:13.525Z,2024
2017-08-05T09:16:54.067Z,2340
2017-08-05T09:17:34.598Z,2500
2017-08-05T09:18:15.127Z,2768
2017-08-05T09:18:55.669Z,3112
2017-08-05T09:19:36.213Z,3052
2017-08-05T09:20:16.752Z,2700
2017-08-05T09:20:57.298Z,2276
2017-08-05T09:21:37.829Z,1876
2017-08-05T09:22:18.361Z,2184
2017-08-05T09:22:58.894Z,2396
2017-08-05T09:23:39.506Z,1988
2017-08-05T09:24:19.996Z,1696
2017-08-05T09:25:00.541Z,1656
2017-08-05T09:25:41.081Z,1400
2017-08-05T09:26:21.626Z,1276